sensor_id;sensor_type;location;lat;lon;timestamp;P1;durP1;ratioP1;P2;durP2;ratioP2
13349;SDS011;6744;53.190;6.576;2022-11-10T00:00:26;4.23;;;1.70;;
13349;SDS011;6744;53.190;6.576;2022-11-10T00:02:51;5.83;;;1.93;;
13349;SDS011;6744;53.190;6.576;2022-11-10T00:05:17;4.27;;;1.63;;
13349;SDS011;6744;53.190;6.576;2022-11-10T00:07:42;7.17;;;1.77;;
13349;SDS011;6744;53.190;6.576;2022-11-10T00:10:07;4.70;;;1.90;;
13349;SDS011;6744;53.190;6.576;2022-11-10T00:12:33;5.00;;;1.87;;
13349;SDS011;6744;53.190;6.576;2022-11-10T00:14:59;4.20;;;1.60;;
13349;SDS011;6744;53.190;6.576;2022-11-10T00:17:43;5.23;;;1.93;;
13349;SDS011;6744;53.190;6.576;2022-11-10T00:20:09;5.50;;;1.63;;
13349;SDS011;6744;53.190;6.576;2022-11-10T00:22:35;7.17;;;2.03;;
13349;SDS011;6744;53.190;6.576;2022-11-10T00:25:01;7.90;;;2.20;;
13349;SDS011;6744;53.190;6.576;2022-11-10T00:27:27;3.87;;;1.53;;
13349;SDS011;6744;53.190;6.576;2022-11-10T00:29:52;5.53;;;1.70;;
13349;SDS011;6744;53.190;6.576;2022-11-10T00:32:18;8.10;;;2.27;;
13349;SDS011;6744;53.190;6.576;2022-11-10T00:34:43;5.83;;;1.73;;
13349;SDS011;6744;53.190;6.576;2022-11-10T00:37:08;4.90;;;1.83;;
13349;SDS011;6744;53.190;6.576;2022-11-10T00:39:34;7.10;;;2.00;;
13349;SDS011;6744;53.190;6.576;2022-11-10T00:41:59;5.50;;;1.73;;
13349;SDS011;6744;53.190;6.576;2022-11-10T00:44:24;4.93;;;1.73;;
13349;SDS011;6744;53.190;6.576;2022-11-10T00:46:50;6.40;;;2.00;;
13349;SDS011;6744;53.190;6.576;2022-11-10T00:49:15;6.33;;;2.40;;
13349;SDS011;6744;53.190;6.576;2022-11-10T00:51:41;6.43;;;1.90;;
13349;SDS011;6744;53.190;6.576;2022-11-10T00:54:06;10.37;;;2.23;;
13349;SDS011;6744;53.190;6.576;2022-11-10T00:56:31;8.00;;;2.50;;
13349;SDS011;6744;53.190;6.576;2022-11-10T00:58:57;4.63;;;1.90;;
13349;SDS011;6744;53.190;6.576;2022-11-10T01:01:22;7.40;;;2.40;;
13349;SDS011;6744;53.190;6.576;2022-11-10T01:03:49;11.20;;;2.53;;
13349;SDS011;6744;53.190;6.576;2022-11-10T01:06:16;7.93;;;2.17;;
13349;SDS011;6744;53.190;6.576;2022-11-10T01:08:42;6.90;;;2.13;;
13349;SDS011;6744;53.190;6.576;2022-11-10T01:11:19;7.53;;;2.57;;
13349;SDS011;6744;53.190;6.576;2022-11-10T01:13:46;9.50;;;2.57;;
13349;SDS011;6744;53.190;6.576;2022-11-10T01:16:15;7.77;;;2.40;;
13349;SDS011;6744;53.190;6.576;2022-11-10T01:18:53;7.20;;;2.73;;
13349;SDS011;6744;53.190;6.576;2022-11-10T01:21:21;10.13;;;2.67;;
13349;SDS011;6744;53.190;6.576;2022-11-10T01:23:47;6.53;;;2.20;;
13349;SDS011;6744;53.190;6.576;2022-11-10T01:26:13;9.17;;;2.77;;
13349;SDS011;6744;53.190;6.576;2022-11-10T01:28:38;7.00;;;2.27;;
13349;SDS011;6744;53.190;6.576;2022-11-10T01:31:05;7.20;;;2.40;;
13349;SDS011;6744;53.190;6.576;2022-11-10T01:33:33;7.40;;;2.80;;
13349;SDS011;6744;53.190;6.576;2022-11-10T01:35:58;7.30;;;2.57;;
13349;SDS011;6744;53.190;6.576;2022-11-10T01:38:28;9.90;;;2.73;;
13349;SDS011;6744;53.190;6.576;2022-11-10T01:40:55;6.67;;;2.30;;
13349;SDS011;6744;53.190;6.576;2022-11-10T01:43:22;5.83;;;2.43;;
13349;SDS011;6744;53.190;6.576;2022-11-10T01:51:05;10.23;;;2.87;;
13349;SDS011;6744;53.190;6.576;2022-11-10T01:53:33;7.23;;;3.07;;
13349;SDS011;6744;53.190;6.576;2022-11-10T01:56:01;8.27;;;2.87;;
13349;SDS011;6744;53.190;6.576;2022-11-10T01:58:28;12.63;;;3.63;;
13349;SDS011;6744;53.190;6.576;2022-11-10T02:00:56;8.83;;;3.20;;
13349;SDS011;6744;53.190;6.576;2022-11-10T02:05:52;7.27;;;2.97;;
13349;SDS011;6744;53.190;6.576;2022-11-10T02:08:18;6.97;;;3.20;;
13349;SDS011;6744;53.190;6.576;2022-11-10T02:10:43;8.63;;;3.27;;
13349;SDS011;6744;53.190;6.576;2022-11-10T02:13:09;7.63;;;2.80;;
13349;SDS011;6744;53.190;6.576;2022-11-10T02:15:35;8.27;;;2.97;;
13349;SDS011;6744;53.190;6.576;2022-11-10T02:18:00;8.10;;;3.40;;
13349;SDS011;6744;53.190;6.576;2022-11-10T02:20:26;10.43;;;3.17;;
13349;SDS011;6744;53.190;6.576;2022-11-10T02:22:51;4.87;;;2.80;;
13349;SDS011;6744;53.190;6.576;2022-11-10T02:25:19;12.03;;;3.40;;
13349;SDS011;6744;53.190;6.576;2022-11-10T02:27:45;8.77;;;3.50;;
13349;SDS011;6744;53.190;6.576;2022-11-10T02:30:11;9.80;;;3.43;;
13349;SDS011;6744;53.190;6.576;2022-11-10T02:32:36;7.50;;;3.37;;
13349;SDS011;6744;53.190;6.576;2022-11-10T02:35:02;7.73;;;3.13;;
13349;SDS011;6744;53.190;6.576;2022-11-10T02:37:28;7.83;;;3.60;;
13349;SDS011;6744;53.190;6.576;2022-11-10T02:39:53;9.03;;;3.10;;
13349;SDS011;6744;53.190;6.576;2022-11-10T02:42:19;7.87;;;3.27;;
13349;SDS011;6744;53.190;6.576;2022-11-10T02:44:44;8.03;;;3.43;;
13349;SDS011;6744;53.190;6.576;2022-11-10T02:47:09;10.80;;;3.50;;
13349;SDS011;6744;53.190;6.576;2022-11-10T02:49:35;10.63;;;3.50;;
13349;SDS011;6744;53.190;6.576;2022-11-10T02:52:00;12.10;;;3.80;;
13349;SDS011;6744;53.190;6.576;2022-11-10T02:54:25;7.53;;;3.30;;
13349;SDS011;6744;53.190;6.576;2022-11-10T02:56:51;7.47;;;3.10;;
13349;SDS011;6744;53.190;6.576;2022-11-10T02:59:17;7.87;;;3.37;;
13349;SDS011;6744;53.190;6.576;2022-11-10T03:01:42;7.97;;;3.30;;
13349;SDS011;6744;53.190;6.576;2022-11-10T03:04:07;9.90;;;3.50;;
13349;SDS011;6744;53.190;6.576;2022-11-10T03:06:33;7.60;;;3.40;;
13349;SDS011;6744;53.190;6.576;2022-11-10T03:08:58;6.00;;;2.97;;
13349;SDS011;6744;53.190;6.576;2022-11-10T03:11:23;7.70;;;3.23;;
13349;SDS011;6744;53.190;6.576;2022-11-10T03:13:49;8.37;;;3.57;;
13349;SDS011;6744;53.190;6.576;2022-11-10T03:16:14;10.60;;;3.63;;
13349;SDS011;6744;53.190;6.576;2022-11-10T03:18:40;8.27;;;3.53;;
13349;SDS011;6744;53.190;6.576;2022-11-10T03:21:05;8.80;;;3.33;;
13349;SDS011;6744;53.190;6.576;2022-11-10T03:23:31;7.50;;;3.27;;
13349;SDS011;6744;53.190;6.576;2022-11-10T03:25:57;7.00;;;3.33;;
13349;SDS011;6744;53.190;6.576;2022-11-10T03:28:22;7.87;;;3.30;;
13349;SDS011;6744;53.190;6.576;2022-11-10T03:30:48;8.00;;;3.17;;
13349;SDS011;6744;53.190;6.576;2022-11-10T03:33:13;6.77;;;3.17;;
13349;SDS011;6744;53.190;6.576;2022-11-10T03:35:38;7.57;;;2.97;;
13349;SDS011;6744;53.190;6.576;2022-11-10T03:38:04;7.83;;;3.30;;
13349;SDS011;6744;53.190;6.576;2022-11-10T03:40:29;8.00;;;2.83;;
13349;SDS011;6744;53.190;6.576;2022-11-10T03:42:55;7.97;;;3.10;;
13349;SDS011;6744;53.190;6.576;2022-11-10T03:45:20;9.87;;;3.20;;
13349;SDS011;6744;53.190;6.576;2022-11-10T03:47:46;14.97;;;3.50;;
13349;SDS011;6744;53.190;6.576;2022-11-10T03:50:13;9.33;;;3.77;;
13349;SDS011;6744;53.190;6.576;2022-11-10T03:52:39;8.47;;;3.03;;
13349;SDS011;6744;53.190;6.576;2022-11-10T03:55:06;7.43;;;3.00;;
13349;SDS011;6744;53.190;6.576;2022-11-10T03:57:33;8.50;;;3.17;;
13349;SDS011;6744;53.190;6.576;2022-11-10T03:59:59;11.97;;;3.30;;
13349;SDS011;6744;53.190;6.576;2022-11-10T04:02:24;10.00;;;3.10;;
13349;SDS011;6744;53.190;6.576;2022-11-10T04:04:49;7.77;;;2.90;;
13349;SDS011;6744;53.190;6.576;2022-11-10T04:07:33;8.83;;;2.90;;
13349;SDS011;6744;53.190;6.576;2022-11-10T04:10:17;9.50;;;3.07;;
13349;SDS011;6744;53.190;6.576;2022-11-10T04:12:43;7.43;;;2.70;;
13349;SDS011;6744;53.190;6.576;2022-11-10T04:15:26;8.73;;;3.37;;
13349;SDS011;6744;53.190;6.576;2022-11-10T04:18:07;6.47;;;3.10;;
13349;SDS011;6744;53.190;6.576;2022-11-10T04:20:46;7.63;;;2.77;;
13349;SDS011;6744;53.190;6.576;2022-11-10T04:23:12;7.97;;;3.13;;
13349;SDS011;6744;53.190;6.576;2022-11-10T04:28:45;8.23;;;3.70;;
13349;SDS011;6744;53.190;6.576;2022-11-10T04:31:11;9.27;;;4.07;;
13349;SDS011;6744;53.190;6.576;2022-11-10T04:33:37;7.87;;;3.40;;
13349;SDS011;6744;53.190;6.576;2022-11-10T04:36:03;9.20;;;4.20;;
13349;SDS011;6744;53.190;6.576;2022-11-10T04:38:29;11.77;;;4.20;;
13349;SDS011;6744;53.190;6.576;2022-11-10T04:40:54;9.90;;;4.10;;
13349;SDS011;6744;53.190;6.576;2022-11-10T04:43:20;12.23;;;4.10;;
13349;SDS011;6744;53.190;6.576;2022-11-10T04:45:45;8.77;;;3.80;;
13349;SDS011;6744;53.190;6.576;2022-11-10T04:48:11;12.77;;;4.50;;
13349;SDS011;6744;53.190;6.576;2022-11-10T04:50:36;8.80;;;3.97;;
13349;SDS011;6744;53.190;6.576;2022-11-10T04:53:01;12.30;;;4.40;;
13349;SDS011;6744;53.190;6.576;2022-11-10T04:55:27;10.83;;;4.47;;
13349;SDS011;6744;53.190;6.576;2022-11-10T04:57:52;14.67;;;4.73;;
13349;SDS011;6744;53.190;6.576;2022-11-10T05:00:17;12.87;;;4.80;;
13349;SDS011;6744;53.190;6.576;2022-11-10T05:02:43;11.37;;;4.40;;
13349;SDS011;6744;53.190;6.576;2022-11-10T05:05:08;11.43;;;4.67;;
13349;SDS011;6744;53.190;6.576;2022-11-10T05:07:34;16.37;;;4.60;;
13349;SDS011;6744;53.190;6.576;2022-11-10T05:09:59;12.80;;;4.60;;
13349;SDS011;6744;53.190;6.576;2022-11-10T05:12:24;10.07;;;4.40;;
13349;SDS011;6744;53.190;6.576;2022-11-10T05:14:50;10.80;;;4.23;;
13349;SDS011;6744;53.190;6.576;2022-11-10T05:17:15;11.43;;;4.37;;
13349;SDS011;6744;53.190;6.576;2022-11-10T05:19:41;12.10;;;4.43;;
13349;SDS011;6744;53.190;6.576;2022-11-10T05:22:06;9.60;;;3.90;;
13349;SDS011;6744;53.190;6.576;2022-11-10T05:24:31;11.37;;;4.40;;
13349;SDS011;6744;53.190;6.576;2022-11-10T05:26:57;11.13;;;4.00;;
13349;SDS011;6744;53.190;6.576;2022-11-10T05:29:22;12.57;;;4.47;;
13349;SDS011;6744;53.190;6.576;2022-11-10T05:31:48;11.17;;;4.43;;
13349;SDS011;6744;53.190;6.576;2022-11-10T05:34:13;12.97;;;4.63;;
13349;SDS011;6744;53.190;6.576;2022-11-10T05:36:39;12.07;;;4.27;;
13349;SDS011;6744;53.190;6.576;2022-11-10T05:39:04;11.90;;;4.13;;
13349;SDS011;6744;53.190;6.576;2022-11-10T05:41:29;11.80;;;3.87;;
13349;SDS011;6744;53.190;6.576;2022-11-10T05:43:55;14.27;;;3.73;;
13349;SDS011;6744;53.190;6.576;2022-11-10T05:46:20;8.87;;;3.77;;
13349;SDS011;6744;53.190;6.576;2022-11-10T05:48:45;11.13;;;4.00;;
13349;SDS011;6744;53.190;6.576;2022-11-10T05:51:11;13.13;;;4.03;;
13349;SDS011;6744;53.190;6.576;2022-11-10T05:53:36;10.47;;;3.83;;
13349;SDS011;6744;53.190;6.576;2022-11-10T05:56:02;12.30;;;4.10;;
13349;SDS011;6744;53.190;6.576;2022-11-10T05:58:27;11.97;;;3.97;;
13349;SDS011;6744;53.190;6.576;2022-11-10T06:00:53;11.17;;;3.73;;
13349;SDS011;6744;53.190;6.576;2022-11-10T06:03:18;10.27;;;3.67;;
13349;SDS011;6744;53.190;6.576;2022-11-10T06:05:44;15.63;;;4.17;;
13349;SDS011;6744;53.190;6.576;2022-11-10T06:08:09;11.97;;;3.47;;
13349;SDS011;6744;53.190;6.576;2022-11-10T06:10:35;11.13;;;3.63;;
13349;SDS011;6744;53.190;6.576;2022-11-10T06:13:01;10.97;;;3.67;;
13349;SDS011;6744;53.190;6.576;2022-11-10T06:15:27;16.03;;;3.63;;
13349;SDS011;6744;53.190;6.576;2022-11-10T06:17:53;13.47;;;3.87;;
13349;SDS011;6744;53.190;6.576;2022-11-10T06:20:18;12.30;;;3.50;;
13349;SDS011;6744;53.190;6.576;2022-11-10T06:22:55;13.23;;;3.70;;
13349;SDS011;6744;53.190;6.576;2022-11-10T06:25:24;14.53;;;3.60;;
13349;SDS011;6744;53.190;6.576;2022-11-10T06:27:49;12.67;;;3.77;;
13349;SDS011;6744;53.190;6.576;2022-11-10T06:30:15;9.67;;;3.30;;
13349;SDS011;6744;53.190;6.576;2022-11-10T06:32:43;10.37;;;3.37;;
13349;SDS011;6744;53.190;6.576;2022-11-10T06:35:09;15.17;;;3.73;;
13349;SDS011;6744;53.190;6.576;2022-11-10T06:37:35;13.50;;;3.43;;
13349;SDS011;6744;53.190;6.576;2022-11-10T06:40:02;13.23;;;3.30;;
13349;SDS011;6744;53.190;6.576;2022-11-10T06:42:29;14.27;;;3.60;;
13349;SDS011;6744;53.190;6.576;2022-11-10T06:44:54;15.00;;;3.47;;
13349;SDS011;6744;53.190;6.576;2022-11-10T06:47:19;12.00;;;3.57;;
13349;SDS011;6744;53.190;6.576;2022-11-10T06:49:45;13.47;;;3.83;;
13349;SDS011;6744;53.190;6.576;2022-11-10T06:52:10;13.00;;;3.53;;
13349;SDS011;6744;53.190;6.576;2022-11-10T06:54:35;12.60;;;3.80;;
13349;SDS011;6744;53.190;6.576;2022-11-10T06:57:01;11.90;;;3.67;;
13349;SDS011;6744;53.190;6.576;2022-11-10T06:59:26;10.40;;;2.83;;
13349;SDS011;6744;53.190;6.576;2022-11-10T07:01:51;10.77;;;3.63;;
13349;SDS011;6744;53.190;6.576;2022-11-10T07:04:17;15.23;;;3.83;;
13349;SDS011;6744;53.190;6.576;2022-11-10T07:06:42;15.63;;;3.83;;
13349;SDS011;6744;53.190;6.576;2022-11-10T07:09:10;14.17;;;4.13;;
13349;SDS011;6744;53.190;6.576;2022-11-10T07:11:35;14.73;;;4.17;;
13349;SDS011;6744;53.190;6.576;2022-11-10T07:14:01;12.03;;;4.27;;
13349;SDS011;6744;53.190;6.576;2022-11-10T07:16:26;12.17;;;3.70;;
13349;SDS011;6744;53.190;6.576;2022-11-10T07:18:52;13.23;;;3.87;;
13349;SDS011;6744;53.190;6.576;2022-11-10T07:21:17;10.50;;;3.63;;
13349;SDS011;6744;53.190;6.576;2022-11-10T07:23:42;15.23;;;4.20;;
13349;SDS011;6744;53.190;6.576;2022-11-10T07:26:08;11.03;;;3.87;;
13349;SDS011;6744;53.190;6.576;2022-11-10T07:28:33;13.07;;;3.73;;
13349;SDS011;6744;53.190;6.576;2022-11-10T07:31:00;12.87;;;3.80;;
13349;SDS011;6744;53.190;6.576;2022-11-10T07:33:26;12.53;;;3.70;;
13349;SDS011;6744;53.190;6.576;2022-11-10T07:35:52;11.73;;;3.83;;
13349;SDS011;6744;53.190;6.576;2022-11-10T07:38:19;13.03;;;3.77;;
13349;SDS011;6744;53.190;6.576;2022-11-10T07:40:44;10.93;;;3.83;;
13349;SDS011;6744;53.190;6.576;2022-11-10T07:43:10;15.00;;;4.43;;
13349;SDS011;6744;53.190;6.576;2022-11-10T07:45:35;15.53;;;4.20;;
13349;SDS011;6744;53.190;6.576;2022-11-10T07:48:01;12.63;;;3.60;;
13349;SDS011;6744;53.190;6.576;2022-11-10T07:50:28;10.97;;;3.90;;
13349;SDS011;6744;53.190;6.576;2022-11-10T07:55:35;12.90;;;3.50;;
13349;SDS011;6744;53.190;6.576;2022-11-10T07:58:02;12.00;;;3.60;;
13349;SDS011;6744;53.190;6.576;2022-11-10T08:00:28;14.13;;;3.97;;
13349;SDS011;6744;53.190;6.576;2022-11-10T08:02:53;14.27;;;4.30;;
13349;SDS011;6744;53.190;6.576;2022-11-10T08:05:18;11.97;;;4.17;;
13349;SDS011;6744;53.190;6.576;2022-11-10T08:07:44;10.50;;;3.50;;
13349;SDS011;6744;53.190;6.576;2022-11-10T08:10:09;12.87;;;3.70;;
13349;SDS011;6744;53.190;6.576;2022-11-10T08:12:35;11.20;;;3.40;;
13349;SDS011;6744;53.190;6.576;2022-11-10T08:15:00;8.97;;;3.60;;
13349;SDS011;6744;53.190;6.576;2022-11-10T08:17:26;9.63;;;3.37;;
13349;SDS011;6744;53.190;6.576;2022-11-10T08:19:51;12.27;;;3.97;;
13349;SDS011;6744;53.190;6.576;2022-11-10T08:22:17;13.83;;;3.50;;
13349;SDS011;6744;53.190;6.576;2022-11-10T08:24:42;13.03;;;3.90;;
13349;SDS011;6744;53.190;6.576;2022-11-10T08:27:07;10.70;;;3.63;;
13349;SDS011;6744;53.190;6.576;2022-11-10T08:29:33;13.07;;;4.07;;
13349;SDS011;6744;53.190;6.576;2022-11-10T08:31:58;12.27;;;4.00;;
13349;SDS011;6744;53.190;6.576;2022-11-10T08:34:24;11.80;;;3.53;;
13349;SDS011;6744;53.190;6.576;2022-11-10T08:36:52;12.63;;;3.90;;
13349;SDS011;6744;53.190;6.576;2022-11-10T08:39:18;11.00;;;4.27;;
13349;SDS011;6744;53.190;6.576;2022-11-10T08:41:43;10.40;;;4.17;;
13349;SDS011;6744;53.190;6.576;2022-11-10T08:44:08;16.60;;;4.70;;
13349;SDS011;6744;53.190;6.576;2022-11-10T08:46:34;12.57;;;4.13;;
13349;SDS011;6744;53.190;6.576;2022-11-10T08:48:59;14.03;;;3.90;;
13349;SDS011;6744;53.190;6.576;2022-11-10T08:51:25;13.37;;;3.80;;
13349;SDS011;6744;53.190;6.576;2022-11-10T08:53:50;13.37;;;3.40;;
13349;SDS011;6744;53.190;6.576;2022-11-10T08:56:15;13.60;;;4.37;;
13349;SDS011;6744;53.190;6.576;2022-11-10T08:58:41;10.20;;;3.80;;
13349;SDS011;6744;53.190;6.576;2022-11-10T09:01:07;7.50;;;3.10;;
13349;SDS011;6744;53.190;6.576;2022-11-10T09:03:33;9.83;;;3.43;;
13349;SDS011;6744;53.190;6.576;2022-11-10T09:05:58;12.80;;;4.00;;
13349;SDS011;6744;53.190;6.576;2022-11-10T09:08:24;13.50;;;3.67;;
13349;SDS011;6744;53.190;6.576;2022-11-10T09:10:49;12.60;;;3.57;;
13349;SDS011;6744;53.190;6.576;2022-11-10T09:13:15;11.07;;;4.00;;
13349;SDS011;6744;53.190;6.576;2022-11-10T09:15:41;10.87;;;3.10;;
13349;SDS011;6744;53.190;6.576;2022-11-10T09:18:07;11.17;;;3.50;;
13349;SDS011;6744;53.190;6.576;2022-11-10T09:20:34;11.87;;;3.77;;
13349;SDS011;6744;53.190;6.576;2022-11-10T09:23:14;8.03;;;3.23;;
13349;SDS011;6744;53.190;6.576;2022-11-10T09:25:41;10.00;;;3.30;;
13349;SDS011;6744;53.190;6.576;2022-11-10T09:28:14;14.93;;;3.60;;
13349;SDS011;6744;53.190;6.576;2022-11-10T09:30:39;12.30;;;3.73;;
13349;SDS011;6744;53.190;6.576;2022-11-10T09:33:05;9.00;;;3.20;;
13349;SDS011;6744;53.190;6.576;2022-11-10T09:35:31;12.37;;;3.93;;
13349;SDS011;6744;53.190;6.576;2022-11-10T09:37:56;10.53;;;3.20;;
13349;SDS011;6744;53.190;6.576;2022-11-10T09:40:23;11.50;;;3.70;;
13349;SDS011;6744;53.190;6.576;2022-11-10T09:42:53;11.40;;;3.77;;
13349;SDS011;6744;53.190;6.576;2022-11-10T09:50:39;12.33;;;3.80;;
13349;SDS011;6744;53.190;6.576;2022-11-10T09:53:13;11.10;;;3.70;;
13349;SDS011;6744;53.190;6.576;2022-11-10T09:58:46;12.10;;;4.17;;
13349;SDS011;6744;53.190;6.576;2022-11-10T10:01:24;10.53;;;4.30;;
13349;SDS011;6744;53.190;6.576;2022-11-10T10:09:33;11.57;;;4.77;;
13349;SDS011;6744;53.190;6.576;2022-11-10T10:12:17;13.00;;;5.20;;
13349;SDS011;6744;53.190;6.576;2022-11-10T10:15:50;13.97;;;5.37;;
13349;SDS011;6744;53.190;6.576;2022-11-10T10:17:52;14.30;;;4.43;;
13349;SDS011;6744;53.190;6.576;2022-11-10T10:23:53;10.87;;;4.70;;
13349;SDS011;6744;53.190;6.576;2022-11-10T10:26:23;10.93;;;4.47;;
13349;SDS011;6744;53.190;6.576;2022-11-10T10:28:52;12.93;;;4.63;;
13349;SDS011;6744;53.190;6.576;2022-11-10T10:31:23;12.53;;;4.47;;
13349;SDS011;6744;53.190;6.576;2022-11-10T10:33:54;11.73;;;4.10;;
13349;SDS011;6744;53.190;6.576;2022-11-10T10:36:27;10.80;;;4.30;;
13349;SDS011;6744;53.190;6.576;2022-11-10T10:38:55;13.13;;;4.17;;
13349;SDS011;6744;53.190;6.576;2022-11-10T10:41:29;11.40;;;4.03;;
13349;SDS011;6744;53.190;6.576;2022-11-10T10:43:57;11.80;;;4.67;;
13349;SDS011;6744;53.190;6.576;2022-11-10T10:46:24;10.60;;;4.53;;
13349;SDS011;6744;53.190;6.576;2022-11-10T10:51:42;15.97;;;4.37;;
13349;SDS011;6744;53.190;6.576;2022-11-10T10:56:49;11.00;;;4.47;;
13349;SDS011;6744;53.190;6.576;2022-11-10T10:59:18;12.33;;;4.03;;
13349;SDS011;6744;53.190;6.576;2022-11-10T11:01:45;14.13;;;4.60;;
13349;SDS011;6744;53.190;6.576;2022-11-10T11:04:24;12.97;;;4.27;;
13349;SDS011;6744;53.190;6.576;2022-11-10T11:06:59;15.97;;;4.57;;
13349;SDS011;6744;53.190;6.576;2022-11-10T11:09:27;12.87;;;4.67;;
13349;SDS011;6744;53.190;6.576;2022-11-10T11:11:59;12.60;;;4.40;;
13349;SDS011;6744;53.190;6.576;2022-11-10T11:14:35;10.87;;;4.20;;
13349;SDS011;6744;53.190;6.576;2022-11-10T11:17:02;13.00;;;4.77;;
13349;SDS011;6744;53.190;6.576;2022-11-10T11:19:38;13.90;;;4.00;;
13349;SDS011;6744;53.190;6.576;2022-11-10T11:30:30;11.40;;;4.00;;
13349;SDS011;6744;53.190;6.576;2022-11-10T11:33:24;13.20;;;3.70;;
13349;SDS011;6744;53.190;6.576;2022-11-10T11:41:57;10.63;;;3.97;;
13349;SDS011;6744;53.190;6.576;2022-11-10T11:50:07;14.97;;;4.43;;
13349;SDS011;6744;53.190;6.576;2022-11-10T11:53:39;13.83;;;5.00;;
13349;SDS011;6744;53.190;6.576;2022-11-10T11:58:44;10.77;;;3.93;;
13349;SDS011;6744;53.190;6.576;2022-11-10T12:07:12;10.80;;;4.00;;
13349;SDS011;6744;53.190;6.576;2022-11-10T12:13:11;11.30;;;3.60;;
13349;SDS011;6744;53.190;6.576;2022-11-10T12:15:50;12.50;;;3.47;;
13349;SDS011;6744;53.190;6.576;2022-11-10T12:18:32;12.57;;;3.37;;
13349;SDS011;6744;53.190;6.576;2022-11-10T12:28:48;10.07;;;3.20;;
13349;SDS011;6744;53.190;6.576;2022-11-10T12:31:19;11.17;;;3.27;;
13349;SDS011;6744;53.190;6.576;2022-11-10T12:33:56;11.03;;;3.43;;
13349;SDS011;6744;53.190;6.576;2022-11-10T12:36:23;10.87;;;2.97;;
13349;SDS011;6744;53.190;6.576;2022-11-10T12:41:33;8.83;;;2.87;;
13349;SDS011;6744;53.190;6.576;2022-11-10T12:44:10;10.23;;;2.90;;
13349;SDS011;6744;53.190;6.576;2022-11-10T12:46:37;9.70;;;2.40;;
13349;SDS011;6744;53.190;6.576;2022-11-10T12:49:15;9.27;;;3.03;;
13349;SDS011;6744;53.190;6.576;2022-11-10T12:54:20;9.17;;;2.83;;
13349;SDS011;6744;53.190;6.576;2022-11-10T12:56:52;11.30;;;3.10;;
13349;SDS011;6744;53.190;6.576;2022-11-10T13:01:45;10.47;;;2.40;;
13349;SDS011;6744;53.190;6.576;2022-11-10T13:04:13;11.83;;;2.93;;
13349;SDS011;6744;53.190;6.576;2022-11-10T13:06:44;13.97;;;2.77;;
13349;SDS011;6744;53.190;6.576;2022-11-10T13:12:02;13.13;;;3.17;;
13349;SDS011;6744;53.190;6.576;2022-11-10T13:14:28;9.30;;;2.63;;
13349;SDS011;6744;53.190;6.576;2022-11-10T13:16:54;10.30;;;2.80;;
13349;SDS011;6744;53.190;6.576;2022-11-10T13:24:26;12.17;;;3.10;;
13349;SDS011;6744;53.190;6.576;2022-11-10T13:26:53;12.33;;;2.40;;
13349;SDS011;6744;53.190;6.576;2022-11-10T13:29:32;12.37;;;2.70;;
13349;SDS011;6744;53.190;6.576;2022-11-10T13:34:35;9.30;;;2.77;;
13349;SDS011;6744;53.190;6.576;2022-11-10T13:42:41;8.93;;;2.50;;
13349;SDS011;6744;53.190;6.576;2022-11-10T13:45:34;10.07;;;2.50;;
13349;SDS011;6744;53.190;6.576;2022-11-10T13:53:26;10.97;;;2.47;;
13349;SDS011;6744;53.190;6.576;2022-11-10T13:59:19;12.67;;;2.80;;
13349;SDS011;6744;53.190;6.576;2022-11-10T14:01:45;8.53;;;2.60;;
13349;SDS011;6744;53.190;6.576;2022-11-10T14:06:58;10.57;;;2.70;;
13349;SDS011;6744;53.190;6.576;2022-11-10T14:11:54;11.37;;;2.43;;
13349;SDS011;6744;53.190;6.576;2022-11-10T14:14:23;8.07;;;2.37;;
13349;SDS011;6744;53.190;6.576;2022-11-10T14:16:50;10.43;;;2.63;;
13349;SDS011;6744;53.190;6.576;2022-11-10T14:19:19;7.93;;;2.40;;
13349;SDS011;6744;53.190;6.576;2022-11-10T14:21:53;8.23;;;2.20;;
13349;SDS011;6744;53.190;6.576;2022-11-10T14:24:25;10.07;;;2.53;;
13349;SDS011;6744;53.190;6.576;2022-11-10T14:26:53;13.60;;;2.60;;
13349;SDS011;6744;53.190;6.576;2022-11-10T14:29:29;9.47;;;2.40;;
13349;SDS011;6744;53.190;6.576;2022-11-10T14:32:00;10.90;;;2.70;;
13349;SDS011;6744;53.190;6.576;2022-11-10T14:34:27;11.33;;;2.47;;
13349;SDS011;6744;53.190;6.576;2022-11-10T14:36:54;12.93;;;3.13;;
13349;SDS011;6744;53.190;6.576;2022-11-10T14:39:22;13.17;;;2.60;;
13349;SDS011;6744;53.190;6.576;2022-11-10T14:41:59;10.20;;;2.70;;
13349;SDS011;6744;53.190;6.576;2022-11-10T14:44:27;12.40;;;2.73;;
13349;SDS011;6744;53.190;6.576;2022-11-10T14:46:53;9.40;;;2.80;;
13349;SDS011;6744;53.190;6.576;2022-11-10T14:49:20;9.73;;;2.87;;
13349;SDS011;6744;53.190;6.576;2022-11-10T14:51:46;8.27;;;2.33;;
13349;SDS011;6744;53.190;6.576;2022-11-10T14:54:12;12.37;;;2.80;;
13349;SDS011;6744;53.190;6.576;2022-11-10T14:56:42;12.67;;;2.73;;
13349;SDS011;6744;53.190;6.576;2022-11-10T14:59:09;12.13;;;2.80;;
13349;SDS011;6744;53.190;6.576;2022-11-10T15:01:37;11.60;;;3.03;;
13349;SDS011;6744;53.190;6.576;2022-11-10T15:04:04;9.03;;;3.13;;
13349;SDS011;6744;53.190;6.576;2022-11-10T15:06:30;9.87;;;2.80;;
13349;SDS011;6744;53.190;6.576;2022-11-10T15:08:56;10.97;;;2.83;;
13349;SDS011;6744;53.190;6.576;2022-11-10T15:14:28;10.03;;;2.43;;
13349;SDS011;6744;53.190;6.576;2022-11-10T15:17:02;12.43;;;3.03;;
13349;SDS011;6744;53.190;6.576;2022-11-10T15:22:22;7.87;;;2.63;;
13349;SDS011;6744;53.190;6.576;2022-11-10T15:24:55;7.83;;;2.53;;
13349;SDS011;6744;53.190;6.576;2022-11-10T15:27:27;10.50;;;2.70;;
13349;SDS011;6744;53.190;6.576;2022-11-10T15:29:55;10.03;;;2.90;;
13349;SDS011;6744;53.190;6.576;2022-11-10T15:32:23;11.57;;;3.00;;
13349;SDS011;6744;53.190;6.576;2022-11-10T15:34:52;10.97;;;2.47;;
13349;SDS011;6744;53.190;6.576;2022-11-10T15:37:31;14.03;;;2.90;;
13349;SDS011;6744;53.190;6.576;2022-11-10T15:43:14;10.07;;;2.70;;
13349;SDS011;6744;53.190;6.576;2022-11-10T15:45:43;8.47;;;2.40;;
13349;SDS011;6744;53.190;6.576;2022-11-10T15:48:11;10.20;;;2.83;;
13349;SDS011;6744;53.190;6.576;2022-11-10T15:50:39;8.77;;;2.50;;
13349;SDS011;6744;53.190;6.576;2022-11-10T15:53:07;6.77;;;2.20;;
13349;SDS011;6744;53.190;6.576;2022-11-10T15:55:36;8.17;;;2.20;;
13349;SDS011;6744;53.190;6.576;2022-11-10T15:58:07;10.47;;;2.60;;
13349;SDS011;6744;53.190;6.576;2022-11-10T16:00:35;11.00;;;2.60;;
13349;SDS011;6744;53.190;6.576;2022-11-10T16:03:00;6.30;;;2.17;;
13349;SDS011;6744;53.190;6.576;2022-11-10T16:05:26;8.67;;;2.33;;
13349;SDS011;6744;53.190;6.576;2022-11-10T16:07:51;8.40;;;2.37;;
13349;SDS011;6744;53.190;6.576;2022-11-10T16:10:16;10.30;;;2.67;;
13349;SDS011;6744;53.190;6.576;2022-11-10T16:12:42;8.83;;;2.23;;
13349;SDS011;6744;53.190;6.576;2022-11-10T16:15:14;8.80;;;2.17;;
13349;SDS011;6744;53.190;6.576;2022-11-10T16:17:42;6.27;;;2.00;;
13349;SDS011;6744;53.190;6.576;2022-11-10T16:20:12;7.67;;;2.23;;
13349;SDS011;6744;53.190;6.576;2022-11-10T16:22:38;7.70;;;2.50;;
13349;SDS011;6744;53.190;6.576;2022-11-10T16:25:03;10.77;;;2.67;;
13349;SDS011;6744;53.190;6.576;2022-11-10T16:27:29;9.37;;;2.70;;
13349;SDS011;6744;53.190;6.576;2022-11-10T16:29:55;9.70;;;2.60;;
13349;SDS011;6744;53.190;6.576;2022-11-10T16:32:20;7.47;;;2.37;;
13349;SDS011;6744;53.190;6.576;2022-11-10T16:34:45;11.27;;;2.50;;
13349;SDS011;6744;53.190;6.576;2022-11-10T16:37:11;9.17;;;2.40;;
13349;SDS011;6744;53.190;6.576;2022-11-10T16:39:36;9.37;;;2.77;;
13349;SDS011;6744;53.190;6.576;2022-11-10T16:42:02;9.43;;;2.60;;
13349;SDS011;6744;53.190;6.576;2022-11-10T16:44:27;10.63;;;2.97;;
13349;SDS011;6744;53.190;6.576;2022-11-10T16:46:53;8.03;;;2.73;;
13349;SDS011;6744;53.190;6.576;2022-11-10T16:49:22;9.07;;;2.60;;
13349;SDS011;6744;53.190;6.576;2022-11-10T16:51:50;6.40;;;2.47;;
13349;SDS011;6744;53.190;6.576;2022-11-10T16:54:15;8.47;;;2.50;;
13349;SDS011;6744;53.190;6.576;2022-11-10T16:56:41;8.73;;;2.73;;
13349;SDS011;6744;53.190;6.576;2022-11-10T16:59:06;6.87;;;2.37;;